Time;durP1;ratioP1;P1;durP2;ratioP2;P2;SDS_P1;SDS_P2;PMS_P1;PMS_P2;Temp;Humidity;BMP_temperature;BMP_pressure;BME280_temperature;BME280_humidity;BME280_pressure;Samples;Min_cycle;Max_cycle;Signal;HPM_P1;HPM_P2
2022/10/27 00:00:25;;;;;;;3.83;1.35;;;;;;;9.73;100.00;100975.38;5030513;28;20029;-53
2022/10/27 00:02:50;;;;;;;13.27;1.00;;;;;;;9.86;100.00;100975.66;5038761;28;20044;-52
2022/10/27 00:05:16;;;;;;;3.17;1.65;;;;;;;9.94;100.00;100980.91;5040274;28;20030;-55
2022/10/27 00:07:41;;;;;;;3.53;0.80;;;;;;;10.00;100.00;100984.69;5047076;28;20382;-51
2022/10/27 00:10:07;;;;;;;12.45;2.83;;;;;;;10.07;100.00;100977.69;5036230;28;20091;-51
2022/10/27 00:12:34;;;;;;;2.85;1.15;;;;;;;10.16;100.00;100984.56;5045531;28;20124;-55
2022/10/27 00:14:59;;;;;;;1.85;1.08;;;;;;;10.23;100.00;100998.78;5048325;28;20099;-54
2022/10/27 00:17:26;;;;;;;7.22;1.88;;;;;;;10.32;100.00;100996.09;5031255;28;20029;-54
2022/10/27 00:19:52;;;;;;;3.08;0.47;;;;;;;10.37;100.00;100991.09;5034333;28;20527;-52
2022/10/27 00:22:17;;;;;;;1.10;0.40;;;;;;;10.45;100.00;100986.56;5039307;28;20037;-51
2022/10/27 00:24:42;;;;;;;7.47;0.50;;;;;;;10.48;100.00;100980.91;5034575;28;20079;-53
2022/10/27 00:27:08;;;;;;;13.77;0.90;;;;;;;10.52;100.00;100970.75;5037704;28;20029;-52
2022/10/27 00:29:33;;;;;;;8.32;1.58;;;;;;;10.59;100.00;100966.38;5042273;28;20056;-51
2022/10/27 00:31:59;;;;;;;6.88;1.17;;;;;;;10.64;100.00;100960.56;5034296;28;20108;-56
2022/10/27 00:34:24;;;;;;;8.88;1.88;;;;;;;10.86;100.00;100954.34;5040278;28;20037;-50
2022/10/27 00:36:50;;;;;;;14.80;4.78;;;;;;;11.06;100.00;100959.97;5041661;28;20034;-51
2022/10/27 00:39:15;;;;;;;4.45;1.17;;;;;;;11.19;100.00;100963.81;5031854;28;20029;-49
2022/10/27 00:41:41;;;;;;;4.53;1.13;;;;;;;11.24;100.00;100958.78;5036790;28;20425;-51
2022/10/27 00:44:38;;;;;;;7.43;1.95;;;;;;;11.34;100.00;100954.81;5042030;28;20116;-51
2022/10/27 00:47:25;;;;;;;7.82;2.17;;;;;;;11.62;100.00;100961.31;5034469;28;20036;-49
2022/10/27 00:49:56;;;;;;;3.25;1.42;;;;;;;11.60;100.00;100952.69;5038493;28;20029;-49
2022/10/27 00:52:33;;;;;;;8.93;0.82;;;;;;;11.53;100.00;100963.22;5042278;28;20025;-49
2022/10/27 00:55:04;;;;;;;4.50;0.77;;;;;;;11.43;100.00;100958.19;5038254;28;20520;-49
2022/10/27 00:57:32;;;;;;;7.70;2.25;;;;;;;11.38;100.00;100960.59;5035317;28;20437;-54
2022/10/27 00:59:59;;;;;;;5.47;1.10;;;;;;;11.39;100.00;100970.22;5042533;28;20052;-51
2022/10/27 01:02:25;;;;;;;11.13;2.65;;;;;;;11.43;100.00;100984.75;5045103;28;20091;-49
2022/10/27 01:04:57;;;;;;;8.23;2.08;;;;;;;11.57;100.00;100981.28;5036897;28;20034;-49
2022/10/27 01:07:23;;;;;;;3.75;1.55;;;;;;;11.65;100.00;100980.34;5037694;28;20444;-49
2022/10/27 01:09:49;;;;;;;5.43;1.73;;;;;;;11.68;100.00;100987.13;5048078;28;20025;-49
2022/10/27 01:12:15;;;;;;;2.05;1.35;;;;;;;11.72;100.00;100981.25;5045272;28;20061;-52
2022/10/27 01:14:41;;;;;;;4.65;0.80;;;;;;;11.77;100.00;100980.66;5036135;28;20056;-50
2022/10/27 01:17:41;;;;;;;11.95;3.72;;;;;;;11.85;100.00;100980.59;5037626;28;20033;-49
2022/10/27 01:20:32;;;;;;;8.05;2.30;;;;;;;11.91;100.00;100977.19;5041787;28;20062;-52
2022/10/27 01:23:13;;;;;;;7.80;2.35;;;;;;;11.99;100.00;100968.28;5034282;28;20032;-50
2022/10/27 01:26:03;;;;;;;7.50;2.72;;;;;;;12.12;100.00;100968.41;5047135;28;20032;-52
2022/10/27 01:28:38;;;;;;;5.25;2.45;;;;;;;12.24;100.00;100974.06;5038886;28;20085;-52
2022/10/27 01:31:08;;;;;;;14.95;6.15;;;;;;;12.35;100.00;100975.41;5041352;28;20033;-55
2022/10/27 01:34:04;;;;;;;5.40;2.60;;;;;;;12.51;100.00;100972.47;5036960;28;20034;-50
2022/10/27 01:36:40;;;;;;;8.07;2.03;;;;;;;12.45;100.00;100967.91;5037354;28;20033;-48
2022/10/27 01:39:26;;;;;;;5.57;3.40;;;;;;;12.47;100.00;100975.69;5040187;28;20041;-49
2022/10/27 01:41:57;;;;;;;6.30;2.90;;;;;;;12.46;100.00;100972.22;5037389;28;20075;-48
2022/10/27 01:44:32;;;;;;;4.80;3.25;;;;;;;12.54;100.00;100963.28;5040005;28;20025;-48
2022/10/27 01:46:59;;;;;;;9.60;3.20;;;;;;;12.58;100.00;100957.38;5039860;28;20033;-51
2022/10/27 01:49:24;;;;;;;7.53;3.92;;;;;;;12.60;100.00;100963.34;5047561;28;20478;-53
2022/10/27 01:51:49;;;;;;;12.57;3.58;;;;;;;12.61;100.00;100953.53;5038520;28;20025;-50
2022/10/27 01:54:18;;;;;;;13.35;3.72;;;;;;;12.66;100.00;100949.25;5039207;28;20021;-54
2022/10/27 01:56:57;;;;;;;8.68;4.22;;;;;;;12.71;100.00;100945.22;5037042;28;20364;-48
2022/10/27 01:59:57;;;;;;;10.00;3.78;;;;;;;12.72;100.00;100939.69;5042371;28;20064;-54
2022/10/27 02:02:47;;;;;;;9.43;3.65;;;;;;;12.74;100.00;100935.00;5033958;28;20393;-50
2022/10/27 02:05:34;;;;;;;7.03;3.30;;;;;;;12.80;100.00;100928.06;5039699;28;20490;-54
2022/10/27 02:08:22;;;;;;;15.20;4.68;;;;;;;12.85;100.00;100936.28;5039218;28;20076;-52
2022/10/27 02:10:58;;;;;;;9.05;4.35;;;;;;;12.84;100.00;100921.34;5040726;28;20037;-54
2022/10/27 02:13:24;;;;;;;12.10;3.90;;;;;;;12.92;100.00;100931.03;5049460;28;20025;-53
2022/10/27 02:15:56;;;;;;;8.40;3.45;;;;;;;12.94;100.00;100932.47;5041330;28;20032;-52
2022/10/27 02:18:29;;;;;;;12.43;3.63;;;;;;;12.93;100.00;100924.66;5036471;28;20403;-50
2022/10/27 02:20:58;;;;;;;8.10;2.95;;;;;;;12.93;100.00;100916.69;5039026;28;20147;-50
2022/10/27 02:23:24;;;;;;;6.43;2.95;;;;;;;12.97;100.00;100918.75;5032630;28;20386;-51
2022/10/27 02:26:17;;;;;;;9.23;4.40;;;;;;;12.99;100.00;100914.06;5045604;28;20029;-52
2022/10/27 02:28:49;;;;;;;14.32;3.92;;;;;;;12.93;100.00;100917.50;5035590;28;20486;-53
2022/10/27 02:31:17;;;;;;;9.68;3.00;;;;;;;12.99;100.00;100907.94;5036013;28;20037;-54
2022/10/27 02:33:42;;;;;;;13.10;4.35;;;;;;;13.01;100.00;100908.53;5036473;28;20025;-55
2022/10/27 02:36:08;;;;;;;4.55;2.83;;;;;;;12.99;100.00;100899.94;5032517;28;20160;-54
2022/10/27 02:38:34;;;;;;;4.40;2.63;;;;;;;12.98;100.00;100890.31;5044594;28;20116;-52
2022/10/27 02:40:59;;;;;;;7.45;2.30;;;;;;;12.93;100.00;100890.06;5033133;28;20528;-50
2022/10/27 02:43:24;;;;;;;5.38;2.45;;;;;;;12.98;100.00;100892.97;5040060;28;20075;-50
2022/10/27 02:45:50;;;;;;;12.23;2.85;;;;;;;12.97;100.00;100889.47;5040174;28;20026;-52
2022/10/27 02:48:15;;;;;;;3.80;2.20;;;;;;;12.96;100.00;100882.53;5035475;28;20095;-49
2022/10/27 02:50:40;;;;;;;3.20;1.98;;;;;;;12.94;100.00;100895.22;5028624;28;20041;-55
2022/10/27 02:53:06;;;;;;;8.45;3.85;;;;;;;12.87;100.00;100887.16;5041464;28;20025;-51
2022/10/27 02:55:31;;;;;;;3.53;2.58;;;;;;;12.79;100.00;100892.66;5033914;28;21365;-48
2022/10/27 02:57:56;;;;;;;5.45;2.75;;;;;;;12.75;100.00;100891.41;5034476;28;20037;-49
2022/10/27 03:00:22;;;;;;;7.78;2.75;;;;;;;12.82;100.00;100884.28;5030401;28;20466;-53
2022/10/27 03:02:47;;;;;;;5.32;3.58;;;;;;;12.82;100.00;100889.59;5035334;28;20036;-51
2022/10/27 03:05:13;;;;;;;12.27;3.78;;;;;;;12.86;100.00;100888.19;5030951;28;20513;-52
2022/10/27 03:07:39;;;;;;;8.70;3.58;;;;;;;12.92;100.00;100885.78;5038444;28;20479;-52
2022/10/27 03:10:05;;;;;;;15.10;4.78;;;;;;;12.92;100.00;100886.59;5035030;28;20043;-54
2022/10/27 03:12:30;;;;;;;12.93;4.35;;;;;;;12.95;100.00;100883.53;5032686;28;20033;-50
2022/10/27 03:14:55;;;;;;;7.13;4.05;;;;;;;12.94;100.00;100879.25;5030809;28;20176;-51
2022/10/27 03:17:21;;;;;;;10.55;3.78;;;;;;;12.92;100.00;100861.81;5033173;28;20029;-52
2022/10/27 03:19:46;;;;;;;13.02;4.00;;;;;;;12.93;100.00;100853.63;5034347;28;20052;-55
2022/10/27 03:22:11;;;;;;;10.68;4.80;;;;;;;12.94;100.00;100849.16;5029807;28;20033;-53
2022/10/27 03:24:37;;;;;;;8.95;4.55;;;;;;;12.93;100.00;100836.84;5026059;28;20038;-53
2022/10/27 03:27:02;;;;;;;9.32;5.10;;;;;;;12.96;100.00;100836.44;5033505;28;20021;-52
2022/10/27 03:29:27;;;;;;;5.63;5.13;;;;;;;12.95;100.00;100845.44;5040545;28;20053;-53
2022/10/27 03:31:53;;;;;;;12.32;4.90;;;;;;;12.97;100.00;100833.59;5038076;28;20052;-53
2022/10/27 03:34:18;;;;;;;7.95;3.60;;;;;;;12.98;100.00;100829.09;5032082;28;20057;-54
2022/10/27 03:36:43;;;;;;;9.30;5.22;;;;;;;12.97;100.00;100827.44;5039716;28;20063;-53
2022/10/27 03:39:09;;;;;;;8.52;4.75;;;;;;;12.96;100.00;100825.78;5030060;28;20033;-54
2022/10/27 03:41:34;;;;;;;4.88;3.70;;;;;;;12.98;100.00;100827.25;5030538;28;20394;-54
2022/10/27 03:43:59;;;;;;;7.60;4.75;;;;;;;12.99;100.00;100828.09;5029049;28;20486;-54
2022/10/27 03:46:25;;;;;;;5.40;3.33;;;;;;;12.94;100.00;100836.66;5032870;28;20017;-50
2022/10/27 03:48:53;;;;;;;8.35;3.72;;;;;;;12.92;100.00;100837.88;5040033;28;20141;-50
2022/10/27 03:51:18;;;;;;;5.05;3.50;;;;;;;12.93;100.00;100829.66;5033051;28;20033;-54
2022/10/27 03:53:43;;;;;;;7.75;3.67;;;;;;;12.98;100.00;100819.25;5030792;28;20038;-51
2022/10/27 03:56:11;;;;;;;7.45;4.15;;;;;;;12.98;100.00;100802.47;5026016;28;20032;-50
2022/10/27 03:58:37;;;;;;;9.70;4.80;;;;;;;13.00;100.00;100805.75;5035471;28;20388;-51
2022/10/27 04:01:04;;;;;;;4.20;3.47;;;;;;;13.07;100.00;100806.59;5030099;28;20044;-48
2022/10/27 04:03:29;;;;;;;8.32;3.38;;;;;;;13.05;100.00;100798.00;5034367;28;20029;-49
2022/10/27 04:05:54;;;;;;;5.65;4.45;;;;;;;13.07;100.00;100793.31;5037174;28;20505;-48
2022/10/27 04:08:20;;;;;;;3.63;3.33;;;;;;;13.08;100.00;100797.59;5030830;28;20017;-50
2022/10/27 04:10:45;;;;;;;8.38;3.08;;;;;;;13.11;100.00;100799.84;5033850;28;20096;-51
2022/10/27 04:13:10;;;;;;;6.10;3.38;;;;;;;13.14;100.00;100783.50;5034682;28;20390;-51
2022/10/27 04:15:36;;;;;;;6.68;4.10;;;;;;;13.16;100.00;100784.09;5036217;28;20617;-49
2022/10/27 04:18:01;;;;;;;5.25;2.92;;;;;;;13.09;100.00;100789.41;5028380;28;20022;-55
2022/10/27 04:20:27;;;;;;;7.88;3.55;;;;;;;13.07;100.00;100785.31;5029066;28;20025;-52
2022/10/27 04:22:57;;;;;;;6.22;2.88;;;;;;;13.09;100.00;100781.44;5030008;28;20056;-49
2022/10/27 04:25:23;;;;;;;4.32;3.83;;;;;;;13.06;100.00;100775.66;5032704;28;20072;-51
2022/10/27 04:27:48;;;;;;;5.43;3.38;;;;;;;13.03;100.00;100768.91;5031467;28;20053;-52
2022/10/27 04:30:13;;;;;;;9.05;2.95;;;;;;;13.04;100.00;100781.22;5030758;28;20033;-53
2022/10/27 04:32:39;;;;;;;6.88;2.78;;;;;;;12.99;100.00;100775.66;5034427;28;20033;-52
2022/10/27 04:35:05;;;;;;;7.20;3.30;;;;;;;13.00;100.00;100773.81;5035458;28;20121;-55
2022/10/27 04:37:31;;;;;;;9.32;3.63;;;;;;;13.01;100.00;100780.78;5031160;28;20021;-52
2022/10/27 04:39:56;;;;;;;5.30;2.97;;;;;;;13.00;100.00;100776.47;5029703;28;20112;-54
2022/10/27 04:42:22;;;;;;;5.53;2.20;;;;;;;12.94;100.00;100791.41;5031262;28;20506;-50
2022/10/27 04:44:47;;;;;;;9.80;2.58;;;;;;;12.97;100.00;100779.53;5027552;28;20467;-55
2022/10/27 04:47:13;;;;;;;9.02;3.28;;;;;;;13.01;100.00;100780.78;5031315;28;20026;-52
2022/10/27 04:49:38;;;;;;;4.55;2.78;;;;;;;12.99;100.00;100770.34;5031599;28;20563;-54
2022/10/27 04:52:03;;;;;;;7.05;2.47;;;;;;;12.93;100.00;100767.66;5028746;28;20359;-54
2022/10/27 04:54:29;;;;;;;5.40;2.25;;;;;;;12.90;100.00;100765.38;5030311;28;20386;-52
2022/10/27 04:56:54;;;;;;;5.70;2.88;;;;;;;12.87;100.00;100762.09;5028036;28;20036;-52
2022/10/27 04:59:19;;;;;;;3.40;1.92;;;;;;;12.93;100.00;100754.34;5034746;28;20057;-55
2022/10/27 05:01:45;;;;;;;3.78;2.22;;;;;;;12.97;100.00;100758.25;5027936;28;20079;-56
2022/10/27 05:04:10;;;;;;;2.92;1.65;;;;;;;12.96;100.00;100757.44;5034242;28;20083;-54
2022/10/27 05:06:36;;;;;;;6.35;1.83;;;;;;;12.99;100.00;100756.22;5027427;28;20092;-51
2022/10/27 05:09:01;;;;;;;3.15;1.67;;;;;;;13.05;100.00;100758.06;5029165;28;20065;-52
2022/10/27 05:11:26;;;;;;;2.85;1.42;;;;;;;13.10;100.00;100751.13;5040132;28;20022;-55
2022/10/27 05:13:52;;;;;;;6.65;1.48;;;;;;;13.12;100.00;100742.94;5032548;28;20036;-51
2022/10/27 05:16:17;;;;;;;4.53;0.88;;;;;;;13.14;100.00;100754.22;5029186;28;20556;-52
2022/10/27 05:18:43;;;;;;;1.70;1.02;;;;;;;13.14;100.00;100742.72;5028973;28;20033;-51
2022/10/27 05:21:08;;;;;;;2.63;1.00;;;;;;;13.12;100.00;100744.78;5028922;28;20410;-51
2022/10/27 05:23:34;;;;;;;2.03;0.60;;;;;;;13.12;100.00;100744.78;5034104;28;20461;-54
2022/10/27 05:25:59;;;;;;;8.00;1.42;;;;;;;13.13;100.00;100738.44;5030265;28;20485;-55
2022/10/27 05:28:25;;;;;;;3.70;1.23;;;;;;;13.07;100.00;100738.22;5029934;28;20088;-50
2022/10/27 05:30:56;;;;;;;2.47;1.15;;;;;;;13.08;100.00;100733.69;5033202;28;20041;-51
2022/10/27 05:33:21;;;;;;;2.70;1.27;;;;;;;13.08;100.00;100720.41;5034611;28;20030;-53
2022/10/27 05:35:46;;;;;;;1.50;1.17;;;;;;;13.07;100.00;100702.78;5032601;28;20044;-52
2022/10/27 05:38:12;;;;;;;7.95;2.65;;;;;;;13.07;100.00;100697.47;5031442;28;20064;-51
2022/10/27 05:40:37;;;;;;;6.88;2.28;;;;;;;13.04;100.00;100701.34;5039367;28;20482;-51
2022/10/27 05:43:03;;;;;;;3.25;1.30;;;;;;;13.03;100.00;100715.66;5044440;28;20028;-50
2022/10/27 05:45:29;;;;;;;2.70;1.35;;;;;;;13.04;100.00;100719.19;5032329;28;20378;-49
2022/10/27 05:47:59;;;;;;;11.68;0.90;;;;;;;13.04;100.00;100721.84;5037958;28;20017;-51
2022/10/27 05:50:28;;;;;;;7.90;1.75;;;;;;;13.03;100.00;100715.66;5034118;28;20030;-51
2022/10/27 05:52:53;;;;;;;2.35;1.05;;;;;;;13.03;100.00;100709.53;5037830;28;20041;-49
2022/10/27 05:55:19;;;;;;;4.25;1.92;;;;;;;13.00;100.00;100705.44;5035122;28;20025;-52
2022/10/27 05:57:56;;;;;;;4.60;1.15;;;;;;;12.99;100.00;100703.00;5036944;28;20025;-50
2022/10/27 06:00:23;;;;;;;4.13;1.30;;;;;;;13.01;100.00;100703.59;5031938;28;20038;-50
2022/10/27 06:02:49;;;;;;;2.22;0.75;;;;;;;13.00;100.00;100723.25;5036125;28;20029;-52
2022/10/27 06:05:15;;;;;;;1.60;0.55;;;;;;;13.01;100.00;100716.88;5037160;28;20040;-53
2022/10/27 06:07:40;;;;;;;7.43;1.90;;;;;;;13.03;100.00;100709.53;5033908;28;20498;-51
2022/10/27 06:10:06;;;;;;;3.70;1.27;;;;;;;13.07;100.00;100710.78;5039465;28;20037;-48
2022/10/27 06:12:31;;;;;;;2.80;0.85;;;;;;;13.08;100.00;100702.56;5037256;28;20035;-49
2022/10/27 06:14:56;;;;;;;8.30;1.98;;;;;;;13.08;100.00;100712.41;5036236;28;20029;-52
2022/10/27 06:17:21;;;;;;;4.90;0.63;;;;;;;13.08;100.00;100715.06;5038812;28;20132;-50
2022/10/27 06:19:47;;;;;;;2.40;0.45;;;;;;;13.08;100.00;100717.72;5036056;28;20120;-54
2022/10/27 06:22:12;;;;;;;3.05;0.55;;;;;;;13.10;100.00;100718.34;5047020;28;20551;-54
2022/10/27 06:24:38;;;;;;;1.77;0.35;;;;;;;13.12;100.00;100718.97;5036630;28;20433;-55
2022/10/27 06:27:03;;;;;;;5.95;0.93;;;;;;;13.18;100.00;100714.69;5033853;28;20029;-54
2022/10/27 06:29:28;;;;;;;3.85;0.88;;;;;;;13.13;100.00;100714.47;5035624;28;20046;-55
2022/10/27 06:31:54;;;;;;;6.40;0.50;;;;;;;13.10;100.00;100710.38;5041879;28;20645;-54
2022/10/27 06:34:19;;;;;;;3.05;0.38;;;;;;;13.09;100.00;100708.75;5031717;28;20026;-54
2022/10/27 06:36:44;;;;;;;2.22;0.40;;;;;;;13.09;100.00;100706.06;5040768;28;20061;-54
2022/10/27 06:39:10;;;;;;;2.80;0.70;;;;;;;13.07;100.00;100711.59;5041501;28;20040;-53
2022/10/27 06:41:35;;;;;;;2.85;1.17;;;;;;;13.08;100.00;100701.75;5041367;28;20064;-55
2022/10/27 06:44:00;;;;;;;5.13;0.50;;;;;;;13.07;100.00;100692.16;5041680;28;20036;-54
2022/10/27 06:46:26;;;;;;;1.50;0.47;;;;;;;13.04;100.00;100693.38;5040457;28;20032;-53
2022/10/27 06:48:51;;;;;;;1.75;0.68;;;;;;;13.03;100.00;100694.38;5039732;28;20478;-52
2022/10/27 06:51:17;;;;;;;3.92;0.68;;;;;;;13.03;100.00;100688.22;5035336;28;20101;-54
2022/10/27 06:53:42;;;;;;;4.32;0.73;;;;;;;13.07;100.00;100681.50;5037521;28;20116;-56
2022/10/27 06:56:07;;;;;;;3.33;1.08;;;;;;;13.08;100.00;100667.16;5035369;28;20048;-51
2022/10/27 06:58:38;;;;;;;6.70;0.82;;;;;;;13.12;100.00;100649.75;5039863;28;20054;-56
2022/10/27 07:01:03;;;;;;;2.22;0.70;;;;;;;13.12;100.00;100641.78;5043360;28;20060;-52
2022/10/27 07:03:30;;;;;;;4.38;1.30;;;;;;;13.14;100.00;100658.38;5030635;28;20553;-54
2022/10/27 07:05:57;;;;;;;3.13;1.08;;;;;;;13.17;100.00;100657.97;5030360;28;20029;-54
2022/10/27 07:08:22;;;;;;;2.78;0.63;;;;;;;13.19;100.00;100639.94;5043602;28;20377;-49
2022/10/27 07:10:47;;;;;;;3.33;0.98;;;;;;;13.23;100.00;100629.69;5035213;28;20029;-56
2022/10/27 07:13:13;;;;;;;6.85;0.65;;;;;;;13.23;100.00;100614.53;5037258;28;20061;-52
2022/10/27 07:15:38;;;;;;;3.25;0.30;;;;;;;13.28;100.00;100605.97;5030740;28;20026;-51
2022/10/27 07:18:06;;;;;;;3.30;1.08;;;;;;;13.33;100.00;100600.03;5041310;28;20102;-53
2022/10/27 07:20:34;;;;;;;4.50;0.70;;;;;;;13.33;100.00;100605.34;5029222;28;20033;-56
2022/10/27 07:23:00;;;;;;;2.38;0.40;;;;;;;13.34;100.00;100612.31;5029516;28;20382;-58
2022/10/27 07:25:27;;;;;;;2.78;1.73;;;;;;;13.33;100.00;100614.16;5037213;28;20367;-55
2022/10/27 07:27:52;;;;;;;11.85;2.25;;;;;;;13.33;100.00;100610.69;5034668;28;20100;-58
2022/10/27 07:30:26;;;;;;;1.20;0.65;;;;;;;13.35;100.00;100611.31;5029204;28;20029;-58
2022/10/27 07:32:52;;;;;;;5.35;0.22;;;;;;;13.33;100.00;100608.03;5038669;28;20497;-56
2022/10/27 07:35:17;;;;;;;2.72;0.45;;;;;;;13.35;100.00;100616.63;5034026;28;20029;-53
2022/10/27 07:37:44;;;;;;;1.48;0.90;;;;;;;13.39;100.00;100616.00;5029646;28;20171;-55
2022/10/27 07:40:11;;;;;;;8.20;1.17;;;;;;;13.43;100.00;100603.09;5033447;28;20401;-56
2022/10/27 07:42:46;;;;;;;3.53;0.85;;;;;;;13.47;100.00;100599.78;5035597;28;20044;-58
2022/10/27 07:45:13;;;;;;;2.92;0.40;;;;;;;13.51;100.00;100608.22;5037012;28;20033;-58
2022/10/27 07:47:57;;;;;;;4.07;0.60;;;;;;;13.55;100.00;100608.59;5043335;28;20029;-57
2022/10/27 07:50:27;;;;;;;3.00;0.50;;;;;;;13.57;100.00;100610.03;5034056;28;20066;-55
2022/10/27 07:52:53;;;;;;;3.63;0.77;;;;;;;13.57;100.00;100620.69;5030440;28;20026;-58
2022/10/27 07:55:20;;;;;;;2.63;0.90;;;;;;;13.61;100.00;100624.59;5026753;28;20130;-59
2022/10/27 07:57:46;;;;;;;4.00;0.63;;;;;;;13.64;100.00;100636.66;5030653;28;20578;-56
2022/10/27 08:00:14;;;;;;;3.38;1.27;;;;;;;13.66;100.00;100640.78;5031545;28;20112;-56
2022/10/27 08:02:40;;;;;;;2.50;0.75;;;;;;;13.67;100.00;100637.06;5028548;28;20043;-57
2022/10/27 08:05:07;;;;;;;0.73;0.38;;;;;;;13.70;100.00;100641.97;5037641;28;20026;-57
2022/10/27 08:07:32;;;;;;;3.45;0.93;;;;;;;13.73;100.00;100643.41;5033208;28;20060;-58
2022/10/27 08:09:58;;;;;;;2.13;0.30;;;;;;;13.76;100.00;100635.03;5034689;28;20065;-59
2022/10/27 08:12:23;;;;;;;3.92;0.65;;;;;;;13.80;100.00;100646.06;5036058;28;20099;-53
2022/10/27 08:14:49;;;;;;;6.82;1.42;;;;;;;13.83;100.00;100635.00;5028914;28;20246;-57
2022/10/27 08:17:14;;;;;;;4.88;0.75;;;;;;;13.85;100.00;100640.94;5037787;28;20127;-58
2022/10/27 08:19:40;;;;;;;11.05;0.65;;;;;;;13.87;100.00;100636.22;5029081;28;20501;-52
2022/10/27 08:22:05;;;;;;;4.32;0.73;;;;;;;13.94;100.00;100635.19;5033952;28;20116;-51
2022/10/27 08:24:31;;;;;;;1.00;0.47;;;;;;;13.97;100.00;100631.28;5029464;28;20766;-58
2022/10/27 08:26:56;;;;;;;3.40;0.47;;;;;;;13.98;100.00;100637.41;5029058;28;20079;-53
2022/10/27 08:29:22;;;;;;;4.25;0.57;;;;;;;13.98;100.00;100638.22;5031022;28;20049;-53
2022/10/27 08:31:48;;;;;;;4.05;1.55;;;;;;;13.97;100.00;100639.28;5036736;28;20469;-56
2022/10/27 08:34:14;;;;;;;5.30;0.55;;;;;;;13.99;100.00;100639.03;5036847;28;20026;-56
2022/10/27 08:36:39;;;;;;;2.85;0.40;;;;;;;13.97;100.00;100641.94;5028801;28;20029;-57
2022/10/27 08:39:07;;;;;;;1.05;0.57;;;;;;;13.99;100.00;100649.72;5030944;28;20025;-58
2022/10/27 08:41:45;;;;;;;2.47;1.08;;;;;;;14.02;100.00;100649.28;5036498;28;20029;-55
2022/10/27 08:44:10;;;;;;;1.65;1.10;;;;;;;14.01;100.00;100648.47;5029469;28;20033;-60
2022/10/27 08:46:58;;;;;;;2.90;0.50;;;;;;;14.04;100.00;100653.38;5032263;28;20052;-56
2022/10/27 08:49:30;;;;;;;8.52;1.00;;;;;;;14.10;100.00;100660.56;5036692;28;20033;-56
2022/10/27 08:52:05;;;;;;;7.35;0.52;;;;;;;14.12;100.00;100660.31;5038451;28;20035;-54
2022/10/27 08:54:31;;;;;;;4.53;0.90;;;;;;;14.13;100.00;100662.81;5029893;28;20037;-55
2022/10/27 08:56:59;;;;;;;3.20;0.77;;;;;;;14.19;100.00;100667.28;5030332;28;20486;-55
2022/10/27 08:59:26;;;;;;;3.67;0.77;;;;;;;14.26;100.00;100656.59;5034038;28;20422;-55
2022/10/27 09:01:58;;;;;;;4.30;0.93;;;;;;;14.32;100.00;100647.75;5032950;28;20021;-57
2022/10/27 09:04:38;;;;;;;7.53;1.35;;;;;;;14.37;100.00;100653.25;5034004;28;20032;-53
2022/10/27 09:07:09;;;;;;;4.53;0.50;;;;;;;14.40;100.00;100644.03;5033662;28;20068;-54
2022/10/27 09:10:05;;;;;;;1.85;0.47;;;;;;;14.45;100.00;100646.88;5036994;28;20038;-54
2022/10/27 09:13:02;;;;;;;5.70;1.27;;;;;;;14.46;100.00;100651.19;5039019;28;20037;-56
2022/10/27 09:15:36;;;;;;;4.38;0.50;;;;;;;14.43;100.00;100646.28;5037185;28;20056;-57
2022/10/27 09:18:11;;;;;;;5.90;1.00;;;;;;;14.40;100.00;100647.53;5038619;28;20108;-55
2022/10/27 09:20:46;;;;;;;0.50;0.45;;;;;;;14.42;100.00;100638.50;5032513;28;20119;-55
2022/10/27 09:23:16;;;;;;;1.05;0.43;;;;;;;14.45;100.00;100643.41;5033107;28;20303;-54
2022/10/27 09:25:45;;;;;;;5.68;0.70;;;;;;;14.48;100.00;100653.63;5036878;28;20051;-56
2022/10/27 09:28:17;;;;;;;3.33;1.02;;;;;;;14.54;100.00;100645.66;5038518;28;20077;-53
2022/10/27 09:30:46;;;;;;;4.53;0.93;;;;;;;14.57;100.00;100644.41;5031689;28;20043;-51
2022/10/27 09:33:16;;;;;;;4.13;0.47;;;;;;;14.61;100.00;100648.25;5038259;28;20026;-57
2022/10/27 09:35:42;;;;;;;6.73;1.13;;;;;;;14.64;100.00;100647.00;5036168;28;20025;-57
2022/10/27 09:38:14;;;;;;;1.52;0.63;;;;;;;14.70;100.00;100647.00;5035795;28;20520;-58
2022/10/27 09:40:40;;;;;;;7.72;2.30;;;;;;;14.74;100.00;100650.03;5031052;28;20030;-53
2022/10/27 09:43:05;;;;;;;4.60;1.00;;;;;;;14.77;100.00;100653.13;5030965;28;20051;-55
2022/10/27 09:45:31;;;;;;;5.68;1.08;;;;;;;14.80;100.00;100651.88;5035487;28;20110;-53
2022/10/27 09:48:01;;;;;;;5.53;1.42;;;;;;;14.83;100.00;100662.91;5031188;28;20100;-58
2022/10/27 09:50:39;;;;;;;3.67;0.13;;;;;;;14.86;100.00;100656.34;5041547;28;20057;-52
2022/10/27 09:53:25;;;;;;;3.28;0.80;;;;;;;14.91;100.00;100653.03;5039158;28;20032;-57
2022/10/27 09:55:52;;;;;;;6.07;0.65;;;;;;;14.97;100.00;100653.00;5036706;28;20084;-55
2022/10/27 09:58:19;;;;;;;4.18;1.10;;;;;;;15.00;100.00;100649.88;5043736;28;20025;-56
2022/10/27 10:00:55;;;;;;;4.55;0.98;;;;;;;15.04;100.00;100644.94;5048843;28;20032;-54
2022/10/27 10:03:21;;;;;;;2.67;0.40;;;;;;;15.04;100.00;100652.94;5036236;28;20037;-58
2022/10/27 10:05:59;;;;;;;1.92;1.38;;;;;;;15.05;100.00;100649.25;5037437;28;20066;-53
2022/10/27 10:08:34;;;;;;;3.80;0.90;;;;;;;15.12;100.00;100654.53;5043949;28;20028;-54
2022/10/27 10:11:02;;;;;;;5.10;1.33;;;;;;;15.20;100.00;100651.59;5043446;28;20037;-57
2022/10/27 10:13:30;;;;;;;3.60;1.23;;;;;;;15.35;100.00;100644.06;5038094;28;20067;-56
2022/10/27 10:16:11;;;;;;;2.65;0.35;;;;;;;15.51;100.00;100641.88;5045549;28;20034;-56
2022/10/27 10:18:39;;;;;;;2.00;0.32;;;;;;;15.60;100.00;100640.56;5047436;28;20033;-58
2022/10/27 10:21:08;;;;;;;2.67;0.73;;;;;;;15.69;100.00;100644.63;5049628;28;20063;-56
2022/10/27 10:23:39;;;;;;;3.53;0.70;;;;;;;15.80;100.00;100646.56;5041030;28;20061;-53
2022/10/27 10:26:17;;;;;;;5.68;0.95;;;;;;;15.85;100.00;100633.38;5033159;28;20053;-55
2022/10/27 10:28:43;;;;;;;8.18;0.70;;;;;;;15.95;100.00;100634.69;5033591;28;20072;-56
2022/10/27 10:31:13;;;;;;;2.53;0.30;;;;;;;16.07;100.00;100635.59;5037144;28;20035;-52
2022/10/27 10:33:41;;;;;;;7.47;0.50;;;;;;;16.21;100.00;100637.06;5034321;28;20039;-51
2022/10/27 10:36:24;;;;;;;2.08;0.45;;;;;;;16.26;100.00;100631.88;5037499;28;20029;-52
2022/10/27 10:38:51;;;;;;;3.40;0.90;;;;;;;16.34;100.00;100636.91;5033016;28;20025;-52
2022/10/27 10:41:19;;;;;;;13.30;1.38;;;;;;;16.42;100.00;100632.25;5032205;28;20028;-57
2022/10/27 10:43:45;;;;;;;1.05;0.52;;;;;;;16.47;100.00;100640.44;5033035;28;20029;-55
2022/10/27 10:46:21;;;;;;;2.33;1.13;;;;;;;16.51;100.00;100637.09;5036792;28;20355;-53
2022/10/27 10:48:56;;;;;;;3.20;0.52;;;;;;;16.57;100.00;100630.00;5033478;28;20032;-54
2022/10/27 10:51:34;;;;;;;4.78;1.33;;;;;;;16.71;100.00;100631.47;5042744;28;20028;-56
2022/10/27 10:54:22;;;;;;;8.32;2.10;;;;;;;16.79;100.00;100628.50;5037723;28;20100;-54
2022/10/27 10:56:52;;;;;;;6.97;0.95;;;;;;;16.87;100.00;100627.34;5029157;28;20037;-52
2022/10/27 10:59:21;;;;;;;6.78;1.77;;;;;;;16.95;100.00;100627.03;5035111;28;20352;-58
2022/10/27 11:02:02;;;;;;;2.67;1.65;;;;;;;16.93;100.00;100620.25;5037925;28;20032;-57
2022/10/27 11:04:31;;;;;;;3.90;0.60;;;;;;;16.98;100.00;100615.03;5032531;28;20041;-55
2022/10/27 11:06:59;;;;;;;6.28;1.40;;;;;;;16.98;100.00;100609.66;5031850;28;20040;-54
2022/10/27 11:09:29;;;;;;;2.13;0.80;;;;;;;17.02;100.00;100610.84;5044598;28;20499;-58
2022/10/27 11:11:55;;;;;;;5.50;1.67;;;;;;;17.05;100.00;100615.75;5034409;28;20112;-52
2022/10/27 11:14:24;;;;;;;4.43;1.35;;;;;;;17.05;100.00;100615.75;5032856;28;20068;-56
2022/10/27 11:16:54;;;;;;;4.05;1.00;;;;;;;17.12;100.00;100605.75;5031867;28;20045;-57
2022/10/27 11:19:22;;;;;;;5.68;1.25;;;;;;;17.13;100.00;100615.41;5040212;28;20124;-57
2022/10/27 11:21:59;;;;;;;4.70;0.47;;;;;;;17.28;100.00;100603.44;5037087;28;20107;-57
2022/10/27 11:24:45;;;;;;;3.60;0.30;;;;;;;17.48;100.00;100606.59;5032933;28;20414;-53